sensor_id;sensor_type;location;lat;lon;timestamp;P1;durP1;ratioP1;P2;durP2;ratioP2
6249;SDS011;3158;52.148;11.568;2022-10-04T00:03:43;0.60;;;0.45;;
6249;SDS011;3158;52.148;11.568;2022-10-04T00:08:46;1.45;;;0.50;;
6249;SDS011;3158;52.148;11.568;2022-10-04T00:13:49;0.95;;;0.50;;
6249;SDS011;3158;52.148;11.568;2022-10-04T00:24:18;0.75;;;0.52;;
6249;SDS011;3158;52.148;11.568;2022-10-04T00:44:44;1.95;;;0.40;;
6249;SDS011;3158;52.148;11.568;2022-10-04T00:49:47;0.50;;;0.50;;
6249;SDS011;3158;52.148;11.568;2022-10-04T00:54:50;5.78;;;0.60;;
6249;SDS011;3158;52.148;11.568;2022-10-04T00:59:53;1.60;;;0.47;;
6249;SDS011;3158;52.148;11.568;2022-10-04T01:04:57;0.88;;;0.50;;
6249;SDS011;3158;52.148;11.568;2022-10-04T01:10:00;0.82;;;0.50;;
6249;SDS011;3158;52.148;11.568;2022-10-04T01:20:25;3.13;;;0.60;;
6249;SDS011;3158;52.148;11.568;2022-10-04T01:25:41;2.03;;;0.60;;
6249;SDS011;3158;52.148;11.568;2022-10-04T01:30:43;0.30;;;0.30;;
6249;SDS011;3158;52.148;11.568;2022-10-04T01:35:44;0.20;;;0.20;;
6249;SDS011;3158;52.148;11.568;2022-10-04T01:40:47;1.63;;;0.50;;
6249;SDS011;3158;52.148;11.568;2022-10-04T01:45:50;0.85;;;0.40;;
6249;SDS011;3158;52.148;11.568;2022-10-04T01:50:58;0.60;;;0.60;;
6249;SDS011;3158;52.148;11.568;2022-10-04T02:01:07;2.85;;;0.65;;
6249;SDS011;3158;52.148;11.568;2022-10-04T02:06:09;0.57;;;0.57;;
6249;SDS011;3158;52.148;11.568;2022-10-04T02:11:14;0.73;;;0.47;;
6249;SDS011;3158;52.148;11.568;2022-10-04T02:16:16;0.40;;;0.40;;
6249;SDS011;3158;52.148;11.568;2022-10-04T02:21:18;0.40;;;0.40;;
6249;SDS011;3158;52.148;11.568;2022-10-04T02:26:19;0.90;;;0.52;;
6249;SDS011;3158;52.148;11.568;2022-10-04T02:31:21;0.50;;;0.50;;
6249;SDS011;3158;52.148;11.568;2022-10-04T02:36:41;0.77;;;0.77;;
6249;SDS011;3158;52.148;11.568;2022-10-04T02:41:43;4.00;;;0.47;;
6249;SDS011;3158;52.148;11.568;2022-10-04T02:46:57;1.55;;;0.50;;
6249;SDS011;3158;52.148;11.568;2022-10-04T02:52:14;0.60;;;0.60;;
6249;SDS011;3158;52.148;11.568;2022-10-04T02:57:19;0.40;;;0.40;;
6249;SDS011;3158;52.148;11.568;2022-10-04T03:07:21;1.00;;;0.52;;
6249;SDS011;3158;52.148;11.568;2022-10-04T03:12:23;0.43;;;0.43;;
6249;SDS011;3158;52.148;11.568;2022-10-04T03:17:24;2.70;;;0.68;;
6249;SDS011;3158;52.148;11.568;2022-10-04T03:22:25;2.38;;;0.50;;
6249;SDS011;3158;52.148;11.568;2022-10-04T03:27:27;1.88;;;0.85;;
6249;SDS011;3158;52.148;11.568;2022-10-04T03:32:31;0.57;;;0.57;;
6249;SDS011;3158;52.148;11.568;2022-10-04T03:37:35;0.50;;;0.50;;
6249;SDS011;3158;52.148;11.568;2022-10-04T03:42:37;0.57;;;0.47;;
6249;SDS011;3158;52.148;11.568;2022-10-04T03:47:39;4.07;;;0.77;;
6249;SDS011;3158;52.148;11.568;2022-10-04T03:52:45;0.40;;;0.40;;
6249;SDS011;3158;52.148;11.568;2022-10-04T03:57:47;1.65;;;0.70;;
6249;SDS011;3158;52.148;11.568;2022-10-04T04:02:54;3.03;;;1.00;;
6249;SDS011;3158;52.148;11.568;2022-10-04T04:08:03;0.50;;;0.50;;
6249;SDS011;3158;52.148;11.568;2022-10-04T04:18:23;1.55;;;0.70;;
6249;SDS011;3158;52.148;11.568;2022-10-04T04:23:26;2.50;;;1.00;;
6249;SDS011;3158;52.148;11.568;2022-10-04T04:33:30;0.52;;;0.52;;
6249;SDS011;3158;52.148;11.568;2022-10-04T04:38:33;3.22;;;0.68;;
6249;SDS011;3158;52.148;11.568;2022-10-04T04:43:34;1.85;;;0.88;;
6249;SDS011;3158;52.148;11.568;2022-10-04T04:48:35;2.42;;;1.00;;
6249;SDS011;3158;52.148;11.568;2022-10-04T04:53:37;4.95;;;0.73;;
6249;SDS011;3158;52.148;11.568;2022-10-04T04:59:02;1.00;;;0.65;;
6249;SDS011;3158;52.148;11.568;2022-10-04T05:04:05;5.25;;;1.05;;
6249;SDS011;3158;52.148;11.568;2022-10-04T05:09:20;0.95;;;0.95;;
6249;SDS011;3158;52.148;11.568;2022-10-04T05:14:22;0.60;;;0.60;;
6249;SDS011;3158;52.148;11.568;2022-10-04T05:29:26;2.28;;;0.77;;
6249;SDS011;3158;52.148;11.568;2022-10-04T05:34:30;0.57;;;0.57;;
6249;SDS011;3158;52.148;11.568;2022-10-04T05:44:45;5.45;;;0.77;;
6249;SDS011;3158;52.148;11.568;2022-10-04T05:49:46;1.85;;;0.50;;
6249;SDS011;3158;52.148;11.568;2022-10-04T05:54:47;2.05;;;0.90;;
6249;SDS011;3158;52.148;11.568;2022-10-04T06:05:21;1.15;;;1.02;;
6249;SDS011;3158;52.148;11.568;2022-10-04T06:15:52;3.45;;;0.90;;
6249;SDS011;3158;52.148;11.568;2022-10-04T06:26:04;0.95;;;0.60;;
6249;SDS011;3158;52.148;11.568;2022-10-04T06:46:29;2.45;;;0.82;;
6249;SDS011;3158;52.148;11.568;2022-10-04T06:56:47;0.65;;;0.60;;
6249;SDS011;3158;52.148;11.568;2022-10-04T07:01:54;0.93;;;0.50;;
6249;SDS011;3158;52.148;11.568;2022-10-04T07:12:58;2.65;;;0.60;;
6249;SDS011;3158;52.148;11.568;2022-10-04T07:18:06;0.98;;;0.40;;
6249;SDS011;3158;52.148;11.568;2022-10-04T07:28:14;4.43;;;0.43;;
6249;SDS011;3158;52.148;11.568;2022-10-04T07:33:40;1.10;;;0.57;;
6249;SDS011;3158;52.148;11.568;2022-10-04T07:38:44;1.30;;;0.43;;
6249;SDS011;3158;52.148;11.568;2022-10-04T07:43:48;1.55;;;0.73;;
6249;SDS011;3158;52.148;11.568;2022-10-04T07:48:51;2.20;;;0.73;;
6249;SDS011;3158;52.148;11.568;2022-10-04T08:04:17;3.83;;;0.98;;
6249;SDS011;3158;52.148;11.568;2022-10-04T08:09:31;1.17;;;0.50;;
6249;SDS011;3158;52.148;11.568;2022-10-04T08:30:15;9.13;;;1.35;;
6249;SDS011;3158;52.148;11.568;2022-10-04T08:51:05;2.17;;;0.68;;
6249;SDS011;3158;52.148;11.568;2022-10-04T09:06:50;0.98;;;0.90;;
6249;SDS011;3158;52.148;11.568;2022-10-04T09:12:08;0.50;;;0.50;;
6249;SDS011;3158;52.148;11.568;2022-10-04T09:17:17;1.00;;;0.60;;
6249;SDS011;3158;52.148;11.568;2022-10-04T10:34:51;2.13;;;0.50;;
6249;SDS011;3158;52.148;11.568;2022-10-04T10:40:02;1.67;;;0.35;;
6249;SDS011;3158;52.148;11.568;2022-10-04T11:06:13;1.42;;;0.30;;
6249;SDS011;3158;52.148;11.568;2022-10-04T11:32:29;0.52;;;0.28;;
6249;SDS011;3158;52.148;11.568;2022-10-04T11:48:21;1.00;;;0.40;;
6249;SDS011;3158;52.148;11.568;2022-10-04T11:58:55;4.28;;;0.30;;
6249;SDS011;3158;52.148;11.568;2022-10-04T12:09:33;0.88;;;0.40;;
6249;SDS011;3158;52.148;11.568;2022-10-04T12:25:35;1.70;;;0.30;;
6249;SDS011;3158;52.148;11.568;2022-10-04T12:35:59;1.60;;;0.30;;
6249;SDS011;3158;52.148;11.568;2022-10-04T12:56:36;1.08;;;0.20;;
6249;SDS011;3158;52.148;11.568;2022-10-04T13:01:42;0.45;;;0.20;;
6249;SDS011;3158;52.148;11.568;2022-10-04T13:12:31;2.03;;;0.15;;
6249;SDS011;3158;52.148;11.568;2022-10-04T13:48:24;0.32;;;0.32;;
6249;SDS011;3158;52.148;11.568;2022-10-04T14:14:08;2.20;;;0.20;;
6249;SDS011;3158;52.148;11.568;2022-10-04T14:24:36;1.60;;;0.30;;
6249;SDS011;3158;52.148;11.568;2022-10-04T14:29:47;0.90;;;0.32;;
6249;SDS011;3158;52.148;11.568;2022-10-04T14:34:59;0.30;;;0.30;;
6249;SDS011;3158;52.148;11.568;2022-10-04T14:40:08;1.65;;;0.40;;
6249;SDS011;3158;52.148;11.568;2022-10-04T15:06:08;1.23;;;0.30;;
6249;SDS011;3158;52.148;11.568;2022-10-04T15:11:16;0.30;;;0.30;;
6249;SDS011;3158;52.148;11.568;2022-10-04T15:16:40;5.68;;;0.32;;
6249;SDS011;3158;52.148;11.568;2022-10-04T15:21:51;0.40;;;0.40;;
6249;SDS011;3158;52.148;11.568;2022-10-04T15:27:20;0.60;;;0.60;;
6249;SDS011;3158;52.148;11.568;2022-10-04T15:32:32;0.80;;;0.80;;
6249;SDS011;3158;52.148;11.568;2022-10-04T15:37:42;2.08;;;1.67;;
6249;SDS011;3158;52.148;11.568;2022-10-04T15:43:00;1.38;;;0.80;;
6249;SDS011;3158;52.148;11.568;2022-10-04T15:58:45;1.55;;;0.50;;
6249;SDS011;3158;52.148;11.568;2022-10-04T16:09:22;1.35;;;1.05;;
6249;SDS011;3158;52.148;11.568;2022-10-04T16:14:50;1.77;;;1.30;;
6249;SDS011;3158;52.148;11.568;2022-10-04T16:25:26;1.08;;;0.98;;
6249;SDS011;3158;52.148;11.568;2022-10-04T16:30:24;2.33;;;0.80;;
6249;SDS011;3158;52.148;11.568;2022-10-04T16:35:30;3.75;;;0.90;;
6249;SDS011;3158;52.148;11.568;2022-10-04T16:40:37;2.15;;;0.77;;
6249;SDS011;3158;52.148;11.568;2022-10-04T16:45:47;5.60;;;5.10;;
6249;SDS011;3158;52.148;11.568;2022-10-04T16:50:57;2.65;;;1.10;;
6249;SDS011;3158;52.148;11.568;2022-10-04T16:56:10;0.82;;;0.80;;
6249;SDS011;3158;52.148;11.568;2022-10-04T17:06:27;2.67;;;0.90;;
6249;SDS011;3158;52.148;11.568;2022-10-04T17:16:37;0.60;;;0.50;;
6249;SDS011;3158;52.148;11.568;2022-10-04T17:31:58;0.80;;;0.80;;
6249;SDS011;3158;52.148;11.568;2022-10-04T17:42:35;0.70;;;0.70;;
6249;SDS011;3158;52.148;11.568;2022-10-04T17:53:03;2.05;;;1.02;;
6249;SDS011;3158;52.148;11.568;2022-10-04T18:03:39;1.67;;;0.70;;
6249;SDS011;3158;52.148;11.568;2022-10-04T18:08:45;1.27;;;1.17;;
6249;SDS011;3158;52.148;11.568;2022-10-04T18:13:49;1.55;;;1.45;;
6249;SDS011;3158;52.148;11.568;2022-10-04T18:18:51;1.02;;;1.02;;
6249;SDS011;3158;52.148;11.568;2022-10-04T18:23:56;1.20;;;1.10;;
6249;SDS011;3158;52.148;11.568;2022-10-04T18:28:59;36.28;;;13.85;;
6249;SDS011;3158;52.148;11.568;2022-10-04T18:34:03;50.83;;;20.00;;
6249;SDS011;3158;52.148;11.568;2022-10-04T18:39:16;18.63;;;8.60;;
6249;SDS011;3158;52.148;11.568;2022-10-04T18:44:19;5.18;;;3.33;;
6249;SDS011;3158;52.148;11.568;2022-10-04T18:49:22;5.93;;;3.88;;
6249;SDS011;3158;52.148;11.568;2022-10-04T19:05:11;20.50;;;11.90;;
6249;SDS011;3158;52.148;11.568;2022-10-04T19:10:29;12.55;;;6.60;;
6249;SDS011;3158;52.148;11.568;2022-10-04T19:20:39;2.53;;;2.05;;
6249;SDS011;3158;52.148;11.568;2022-10-04T19:25:46;3.08;;;2.08;;
6249;SDS011;3158;52.148;11.568;2022-10-04T19:30:56;2.88;;;2.60;;
6249;SDS011;3158;52.148;11.568;2022-10-04T19:36:08;2.35;;;2.17;;
6249;SDS011;3158;52.148;11.568;2022-10-04T19:46:38;2.40;;;1.20;;
6249;SDS011;3158;52.148;11.568;2022-10-04T19:51:46;1.83;;;1.00;;
6249;SDS011;3158;52.148;11.568;2022-10-04T19:56:50;1.10;;;1.10;;
6249;SDS011;3158;52.148;11.568;2022-10-04T20:01:55;4.72;;;1.27;;
6249;SDS011;3158;52.148;11.568;2022-10-04T20:06:57;2.05;;;1.08;;
6249;SDS011;3158;52.148;11.568;2022-10-04T20:11:58;3.22;;;1.10;;
6249;SDS011;3158;52.148;11.568;2022-10-04T20:42:45;2.85;;;0.95;;
6249;SDS011;3158;52.148;11.568;2022-10-04T20:48:13;1.40;;;1.25;;
6249;SDS011;3158;52.148;11.568;2022-10-04T20:53:27;1.00;;;0.80;;
6249;SDS011;3158;52.148;11.568;2022-10-04T20:58:32;1.30;;;1.15;;
6249;SDS011;3158;52.148;11.568;2022-10-04T21:03:34;1.15;;;0.90;;
6249;SDS011;3158;52.148;11.568;2022-10-04T21:08:36;1.40;;;1.30;;
6249;SDS011;3158;52.148;11.568;2022-10-04T21:18:41;3.78;;;1.20;;
6249;SDS011;3158;52.148;11.568;2022-10-04T21:23:42;5.43;;;1.15;;
6249;SDS011;3158;52.148;11.568;2022-10-04T21:28:43;1.17;;;1.08;;
6249;SDS011;3158;52.148;11.568;2022-10-04T21:33:45;0.95;;;0.95;;
6249;SDS011;3158;52.148;11.568;2022-10-04T21:38:46;1.75;;;1.02;;
6249;SDS011;3158;52.148;11.568;2022-10-04T21:43:47;0.60;;;0.60;;
6249;SDS011;3158;52.148;11.568;2022-10-04T21:48:48;0.90;;;0.90;;
6249;SDS011;3158;52.148;11.568;2022-10-04T21:53:49;1.13;;;1.00;;
6249;SDS011;3158;52.148;11.568;2022-10-04T21:58:50;2.35;;;1.02;;
6249;SDS011;3158;52.148;11.568;2022-10-04T22:03:51;1.83;;;1.73;;
6249;SDS011;3158;52.148;11.568;2022-10-04T22:08:53;1.88;;;1.13;;
6249;SDS011;3158;52.148;11.568;2022-10-04T22:13:54;1.50;;;0.90;;
6249;SDS011;3158;52.148;11.568;2022-10-04T22:18:55;1.67;;;0.88;;
6249;SDS011;3158;52.148;11.568;2022-10-04T22:23:56;0.82;;;0.65;;
6249;SDS011;3158;52.148;11.568;2022-10-04T22:28:57;2.15;;;1.20;;
6249;SDS011;3158;52.148;11.568;2022-10-04T22:33:58;1.77;;;0.90;;
6249;SDS011;3158;52.148;11.568;2022-10-04T22:39:02;0.70;;;0.70;;
6249;SDS011;3158;52.148;11.568;2022-10-04T22:44:09;0.55;;;0.55;;
6249;SDS011;3158;52.148;11.568;2022-10-04T22:49:13;0.82;;;0.82;;
6249;SDS011;3158;52.148;11.568;2022-10-04T22:54:16;1.23;;;0.93;;
6249;SDS011;3158;52.148;11.568;2022-10-04T22:59:18;1.35;;;1.00;;
6249;SDS011;3158;52.148;11.568;2022-10-04T23:04:20;1.85;;;0.63;;
6249;SDS011;3158;52.148;11.568;2022-10-04T23:09:22;0.70;;;0.70;;
6249;SDS011;3158;52.148;11.568;2022-10-04T23:14:23;1.55;;;1.45;;
6249;SDS011;3158;52.148;11.568;2022-10-04T23:19:24;0.88;;;0.73;;
6249;SDS011;3158;52.148;11.568;2022-10-04T23:24:25;0.90;;;0.90;;
6249;SDS011;3158;52.148;11.568;2022-10-04T23:29:28;1.67;;;0.93;;
6249;SDS011;3158;52.148;11.568;2022-10-04T23:34:36;0.95;;;0.95;;
6249;SDS011;3158;52.148;11.568;2022-10-04T23:39:38;1.75;;;0.90;;
6249;SDS011;3158;52.148;11.568;2022-10-04T23:44:39;0.77;;;0.68;;
6249;SDS011;3158;52.148;11.568;2022-10-04T23:49:40;0.65;;;0.65;;
6249;SDS011;3158;52.148;11.568;2022-10-04T23:54:42;2.53;;;1.20;;
6249;SDS011;3158;52.148;11.568;2022-10-04T23:59:43;1.20;;;0.90;;
